Pagina principale
METAR-TAF:

METAR-TAF

Aeroporti :

Szolnok, Ungheria

latitudine: 47-07N, longitudine: 020-14E, altezza: 89 m

Osservazione

Il bollettino è stato emesso 40 minuti fa, alle 09:45 UTC
Vento 8 kt da est/nord-est, variando fra nord e est/sud-est
Temperature 4°C
Umidità 38%
Pressione 1021 hPa
Visibilità 10 km o più
nessuna nube inferiore a 1500 m e nessun cumulonembo

METAR: LHSN 090945Z 06008KT 360V110 CAVOK 04/M09 Q1021 NOSIG RMK BLU

Ora: 11:25 (10:25 UTC)

Previsione

Il bollettino è stato emesso 2 ore e 10 minuti fa, alle 08:15 UTC
Previsione valida dal 09 alle 09 UTC al 09 alle 18 UTC
Vento 10 kt da nord-est
Visibilità 10 km o più
nessuna nube inferiore a 1500 m e nessun cumulonembo
Evoluzione graduale
dal 09 alle 13 UTC al 09 alle 15 UTC
Vento 6 kt da nord/nord-est

TAF: LHSN 090815Z 0909/0918 05010KT CAVOK BECMG 0913/0915 03006KT

Osservazioni e previsioni meteorologiche di più di 4000 aeroporti (messaggi METAR e TAF).

Le stazioni disponibili sono rappresentate dai dischi gialli e rossi sulla carta.

Puntare il mouse per vedere il nome della stazione.

Clicca sopra per visualizzare le osservazioni e previsioni meteorologiche.

Per cambiare la mappa : fare clic sui pulsanti verdi con una croce nera per ingrandire, il pulsante verde con un trattino per diminuire, o sulla freccia verde per le mappe adiacenti.


METAR-TAF: